This is the latest recevied weather packets stored in our database for station/object K1RFS. If no packets are shown the sender has not sent any weather packets the latest 1 day(s).
| Time | Temp. | Humidity | Pressure | Rain* | Wind** | Luminosity | Snow |
|---|---|---|---|---|---|---|---|
| 1778034241 | 12.78° C | 51% | 994.8 hPa | 0 mm | - | 4 W/m² | - |
| 1778033939 | 12.78° C | 51% | 994.5 hPa | 0 mm | - | 5 W/m² | - |
| 1778033635 | 12.78° C | 50% | 994.5 hPa | 0 mm | - | 8 W/m² | - |
| 1778033332 | 13.33° C | 50% | 994.5 hPa | 0 mm | - | 10 W/m² | - |
| 1778032425 | 13.89° C | 48% | 994.8 hPa | 0 mm | - | 38 W/m² | - |
| 1778031818 | 14.44° C | 46% | 994.6 hPa | 0 mm | - | 56 W/m² | - |
| 1778031514 | 14.44° C | 46% | 994.5 hPa | 0 mm | - | 64 W/m² | - |
| 1778031212 | 15° C | 45% | 994.8 hPa | 0 mm | - | 73 W/m² | - |
| 1778030909 | 15° C | 44% | 994.6 hPa | 0 mm | - | 83 W/m² | - |
| 1778030606 | 15° C | 45% | 994.5 hPa | 0 mm | - | 92 W/m² | - |
| 1778030303 | 15° C | 45% | 994.5 hPa | 0 mm | - | 101 W/m² | - |
| 1778029697 | 15.56° C | 44% | 994.9 hPa | 0 mm | - | 120 W/m² | - |
| 1778029395 | 15.56° C | 45% | 994.6 hPa | 0 mm | - | 130 W/m² | - |
| 1778029092 | 16.11° C | 44% | 994.8 hPa | 0 mm | - | 139 W/m² | - |
| 1778028183 | 16.11° C | 43% | 994.6 hPa | 0 mm | - | 170 W/m² | - |
| 1778027878 | 16.67° C | 43% | 994.5 hPa | 0 mm | - | 128 W/m² | - |
| 1778027575 | 16.11° C | 44% | 994.6 hPa | 0 mm | - | 193 W/m² | - |
| 1778027271 | 16.11° C | 44% | 994.6 hPa | 0 mm | - | 203 W/m² | - |
| 1778026967 | 16.67° C | 43% | 994.9 hPa | 0 mm | - | 213 W/m² | - |
| 1778026663 | 16.67° C | 43% | 994.6 hPa | 0 mm | - | 223 W/m² | - |
| 1778026361 | 16.67° C | 44% | 994.6 hPa | 0 mm | - | 237 W/m² | - |
| 1778025452 | 16.67° C | 44% | 994.5 hPa | 0 mm | - | 270 W/m² | - |
| 1778019695 | 12.22° C | 59% | 995.6 hPa | 0 mm | - | 155 W/m² | - |
| 1778018781 | 12.78° C | 59% | 995.9 hPa | 0 mm | - | 114 W/m² | - |
| 1778018176 | 13.33° C | 52% | 995.8 hPa | 0 mm | - | 76 W/m² | - |
* Rain latest hour (hover to see other rain measurements)
** Current wind speed in m/s (hover to see current wind gust speed)